sensor_id;sensor_type;location;lat;lon;timestamp;pressure;altitude;pressure_sealevel;temperature;humidity
48041;BME280;33815;48.386;11.738;2023-04-30T00:02:16;96707.16;;;6.44;100.00
48041;BME280;33815;48.386;11.738;2023-04-30T00:04:42;96709.50;;;6.58;100.00
48041;BME280;33815;48.386;11.738;2023-04-30T00:07:07;96715.84;;;6.65;100.00
48041;BME280;33815;48.386;11.738;2023-04-30T00:09:32;96715.84;;;6.65;100.00
48041;BME280;33815;48.386;11.738;2023-04-30T00:11:58;96721.09;;;6.75;100.00
48041;BME280;33815;48.386;11.738;2023-04-30T00:14:23;96717.84;;;6.94;100.00
48041;BME280;33815;48.386;11.738;2023-04-30T00:16:48;96711.72;;;6.95;100.00
48041;BME280;33815;48.386;11.738;2023-04-30T00:19:13;96717.34;;;7.00;100.00
48041;BME280;33815;48.386;11.738;2023-04-30T00:21:39;96701.34;;;6.95;100.00
48041;BME280;33815;48.386;11.738;2023-04-30T00:24:04;96719.69;;;7.03;100.00
48041;BME280;33815;48.386;11.738;2023-04-30T00:26:29;96723.69;;;7.08;100.00
48041;BME280;33815;48.386;11.738;2023-04-30T00:28:55;96730.47;;;7.20;100.00
48041;BME280;33815;48.386;11.738;2023-04-30T00:31:20;96720.09;;;7.20;100.00
48041;BME280;33815;48.386;11.738;2023-04-30T00:33:45;96721.50;;;7.24;100.00
48041;BME280;33815;48.386;11.738;2023-04-30T00:36:11;96699.63;;;7.17;100.00
48041;BME280;33815;48.386;11.738;2023-04-30T00:38:36;96722.75;;;7.30;100.00
48041;BME280;33815;48.386;11.738;2023-04-30T00:41:01;96720.72;;;7.33;100.00
48041;BME280;33815;48.386;11.738;2023-04-30T00:43:26;96725.53;;;7.38;100.00
48041;BME280;33815;48.386;11.738;2023-04-30T00:45:52;96721.75;;;7.42;100.00
48041;BME280;33815;48.386;11.738;2023-04-30T00:48:17;96719.97;;;7.43;100.00
48041;BME280;33815;48.386;11.738;2023-04-30T00:50:43;96714.91;;;7.41;100.00
48041;BME280;33815;48.386;11.738;2023-04-30T00:53:10;96716.44;;;7.44;100.00
48041;BME280;33815;48.386;11.738;2023-04-30T00:55:36;96699.16;;;7.33;100.00
48041;BME280;33815;48.386;11.738;2023-04-30T00:58:01;96694.97;;;7.42;100.00
48041;BME280;33815;48.386;11.738;2023-04-30T01:00:27;96712.81;;;7.56;100.00
48041;BME280;33815;48.386;11.738;2023-04-30T01:02:52;96709.13;;;7.59;100.00
48041;BME280;33815;48.386;11.738;2023-04-30T01:05:19;96719.13;;;7.63;100.00
48041;BME280;33815;48.386;11.738;2023-04-30T01:07:46;96704.78;;;7.59;100.00
48041;BME280;33815;48.386;11.738;2023-04-30T01:10:13;96720.00;;;7.74;100.00
48041;BME280;33815;48.386;11.738;2023-04-30T01:12:49;96720.13;;;7.72;100.00
48041;BME280;33815;48.386;11.738;2023-04-30T01:15:28;96706.84;;;7.65;100.00
48041;BME280;33815;48.386;11.738;2023-04-30T01:18:03;96723.97;;;7.78;100.00
48041;BME280;33815;48.386;11.738;2023-04-30T01:20:30;96729.84;;;7.80;100.00
48041;BME280;33815;48.386;11.738;2023-04-30T01:28:08;96727.53;;;7.77;100.00
48041;BME280;33815;48.386;11.738;2023-04-30T01:30:35;96740.38;;;7.78;100.00
48041;BME280;33815;48.386;11.738;2023-04-30T01:33:01;96727.91;;;7.72;100.00
48041;BME280;33815;48.386;11.738;2023-04-30T01:35:38;96716.78;;;7.60;100.00
48041;BME280;33815;48.386;11.738;2023-04-30T01:41:19;96745.31;;;7.60;100.00
48041;BME280;33815;48.386;11.738;2023-04-30T01:46:46;96746.84;;;7.63;100.00
48041;BME280;33815;48.386;11.738;2023-04-30T01:49:20;96748.56;;;7.52;100.00
48041;BME280;33815;48.386;11.738;2023-04-30T01:51:51;96756.13;;;7.44;100.00
48041;BME280;33815;48.386;11.738;2023-04-30T01:54:28;96755.69;;;7.39;100.00
48041;BME280;33815;48.386;11.738;2023-04-30T01:57:06;96754.28;;;7.35;100.00
48041;BME280;33815;48.386;11.738;2023-04-30T01:59:34;96759.25;;;7.38;100.00
48041;BME280;33815;48.386;11.738;2023-04-30T02:02:00;96759.19;;;7.28;100.00
48041;BME280;33815;48.386;11.738;2023-04-30T02:04:25;96758.38;;;7.16;100.00
48041;BME280;33815;48.386;11.738;2023-04-30T02:06:50;96742.81;;;6.95;100.00
48041;BME280;33815;48.386;11.738;2023-04-30T02:09:16;96748.25;;;6.92;100.00
48041;BME280;33815;48.386;11.738;2023-04-30T02:11:41;96767.91;;;6.95;100.00
48041;BME280;33815;48.386;11.738;2023-04-30T02:14:06;96754.03;;;6.84;100.00
48041;BME280;33815;48.386;11.738;2023-04-30T02:16:31;96754.25;;;6.93;100.00
48041;BME280;33815;48.386;11.738;2023-04-30T02:18:57;96764.47;;;6.94;100.00
48041;BME280;33815;48.386;11.738;2023-04-30T02:21:22;96762.59;;;6.96;100.00
48041;BME280;33815;48.386;11.738;2023-04-30T02:23:47;96763.28;;;6.98;100.00
48041;BME280;33815;48.386;11.738;2023-04-30T02:26:13;96769.06;;;7.02;100.00
48041;BME280;33815;48.386;11.738;2023-04-30T02:28:38;96761.28;;;7.02;100.00
48041;BME280;33815;48.386;11.738;2023-04-30T02:31:03;96766.69;;;7.10;100.00
48041;BME280;33815;48.386;11.738;2023-04-30T02:33:29;96753.50;;;7.02;100.00
48041;BME280;33815;48.386;11.738;2023-04-30T02:35:54;96763.16;;;7.11;100.00
48041;BME280;33815;48.386;11.738;2023-04-30T02:38:20;96759.97;;;7.08;100.00
48041;BME280;33815;48.386;11.738;2023-04-30T02:40:45;96770.53;;;7.16;100.00
48041;BME280;33815;48.386;11.738;2023-04-30T02:43:10;96754.41;;;7.12;100.00
48041;BME280;33815;48.386;11.738;2023-04-30T02:45:35;96762.03;;;7.25;100.00
48041;BME280;33815;48.386;11.738;2023-04-30T02:48:01;96770.94;;;7.32;100.00
48041;BME280;33815;48.386;11.738;2023-04-30T02:50:26;96774.94;;;7.36;100.00
48041;BME280;33815;48.386;11.738;2023-04-30T02:52:51;96766.66;;;7.43;100.00
48041;BME280;33815;48.386;11.738;2023-04-30T02:55:16;96762.97;;;7.45;100.00
48041;BME280;33815;48.386;11.738;2023-04-30T02:57:42;96767.09;;;7.48;100.00
48041;BME280;33815;48.386;11.738;2023-04-30T03:00:07;96769.56;;;7.49;100.00
48041;BME280;33815;48.386;11.738;2023-04-30T03:02:33;96777.53;;;7.58;100.00
48041;BME280;33815;48.386;11.738;2023-04-30T03:04:58;96770.44;;;7.60;100.00
48041;BME280;33815;48.386;11.738;2023-04-30T03:07:24;96783.59;;;7.68;100.00
48041;BME280;33815;48.386;11.738;2023-04-30T03:09:49;96778.88;;;7.73;100.00
48041;BME280;33815;48.386;11.738;2023-04-30T03:12:14;96755.59;;;7.62;100.00
48041;BME280;33815;48.386;11.738;2023-04-30T03:14:40;96769.56;;;7.70;100.00
48041;BME280;33815;48.386;11.738;2023-04-30T03:17:05;96748.03;;;7.59;100.00
48041;BME280;33815;48.386;11.738;2023-04-30T03:19:31;96766.13;;;7.70;100.00
48041;BME280;33815;48.386;11.738;2023-04-30T03:21:56;96765.31;;;7.69;100.00
48041;BME280;33815;48.386;11.738;2023-04-30T03:24:21;96776.56;;;7.80;100.00
48041;BME280;33815;48.386;11.738;2023-04-30T03:26:47;96774.94;;;7.79;100.00
48041;BME280;33815;48.386;11.738;2023-04-30T03:29:12;96778.88;;;7.73;100.00
48041;BME280;33815;48.386;11.738;2023-04-30T03:31:37;96771.69;;;7.65;100.00
48041;BME280;33815;48.386;11.738;2023-04-30T03:34:03;96754.94;;;7.48;100.00
48041;BME280;33815;48.386;11.738;2023-04-30T03:36:28;96756.28;;;7.43;100.00
48041;BME280;33815;48.386;11.738;2023-04-30T03:38:53;96755.34;;;7.44;100.00
48041;BME280;33815;48.386;11.738;2023-04-30T03:41:18;96752.03;;;7.42;100.00
48041;BME280;33815;48.386;11.738;2023-04-30T03:43:44;96749.94;;;7.35;100.00
48041;BME280;33815;48.386;11.738;2023-04-30T03:46:10;96752.59;;;7.24;100.00
48041;BME280;33815;48.386;11.738;2023-04-30T03:48:35;96761.44;;;7.22;100.00
48041;BME280;33815;48.386;11.738;2023-04-30T03:51:00;96761.25;;;7.13;100.00
48041;BME280;33815;48.386;11.738;2023-04-30T03:53:26;96755.41;;;7.00;100.00
48041;BME280;33815;48.386;11.738;2023-04-30T03:55:52;96756.69;;;6.94;100.00
48041;BME280;33815;48.386;11.738;2023-04-30T03:58:18;96742.16;;;6.82;100.00
48041;BME280;33815;48.386;11.738;2023-04-30T04:00:44;96747.38;;;6.71;100.00
48041;BME280;33815;48.386;11.738;2023-04-30T04:03:13;96759.50;;;6.70;100.00
48041;BME280;33815;48.386;11.738;2023-04-30T04:05:38;96746.09;;;6.54;100.00
48041;BME280;33815;48.386;11.738;2023-04-30T04:08:04;96756.94;;;6.59;100.00
48041;BME280;33815;48.386;11.738;2023-04-30T04:10:30;96748.69;;;6.54;100.00
48041;BME280;33815;48.386;11.738;2023-04-30T04:12:56;96752.50;;;6.49;100.00
48041;BME280;33815;48.386;11.738;2023-04-30T04:15:21;96740.50;;;6.37;100.00
48041;BME280;33815;48.386;11.738;2023-04-30T04:17:46;96750.00;;;6.48;100.00
48041;BME280;33815;48.386;11.738;2023-04-30T04:20:12;96738.47;;;6.41;100.00
48041;BME280;33815;48.386;11.738;2023-04-30T04:22:37;96756.13;;;6.47;100.00
48041;BME280;33815;48.386;11.738;2023-04-30T04:25:03;96739.66;;;6.25;100.00
48041;BME280;33815;48.386;11.738;2023-04-30T04:27:28;96761.78;;;6.29;100.00
48041;BME280;33815;48.386;11.738;2023-04-30T04:29:54;96761.78;;;6.18;100.00
48041;BME280;33815;48.386;11.738;2023-04-30T04:32:19;96769.31;;;6.21;100.00
48041;BME280;33815;48.386;11.738;2023-04-30T04:34:44;96770.28;;;6.20;100.00
48041;BME280;33815;48.386;11.738;2023-04-30T04:37:10;96755.22;;;6.14;100.00
48041;BME280;33815;48.386;11.738;2023-04-30T04:39:35;96766.97;;;6.18;100.00
48041;BME280;33815;48.386;11.738;2023-04-30T04:42:01;96767.69;;;6.20;100.00
48041;BME280;33815;48.386;11.738;2023-04-30T04:44:26;96755.34;;;6.12;100.00
48041;BME280;33815;48.386;11.738;2023-04-30T04:46:52;96762.63;;;6.18;100.00
48041;BME280;33815;48.386;11.738;2023-04-30T04:49:18;96759.56;;;6.25;100.00
48041;BME280;33815;48.386;11.738;2023-04-30T04:51:43;96782.16;;;6.45;100.00
48041;BME280;33815;48.386;11.738;2023-04-30T04:54:08;96791.09;;;6.53;100.00
48041;BME280;33815;48.386;11.738;2023-04-30T04:56:34;96774.22;;;6.69;100.00
48041;BME280;33815;48.386;11.738;2023-04-30T04:59:00;96775.97;;;6.80;100.00
48041;BME280;33815;48.386;11.738;2023-04-30T05:01:25;96779.63;;;6.78;100.00
48041;BME280;33815;48.386;11.738;2023-04-30T05:03:51;96771.09;;;6.87;100.00
48041;BME280;33815;48.386;11.738;2023-04-30T05:06:17;96776.84;;;7.02;100.00
48041;BME280;33815;48.386;11.738;2023-04-30T05:08:42;96779.91;;;7.28;100.00
48041;BME280;33815;48.386;11.738;2023-04-30T05:11:08;96772.78;;;7.63;100.00
48041;BME280;33815;48.386;11.738;2023-04-30T05:13:33;96789.78;;;7.77;100.00
48041;BME280;33815;48.386;11.738;2023-04-30T05:15:59;96790.78;;;7.85;100.00
48041;BME280;33815;48.386;11.738;2023-04-30T05:18:24;96792.41;;;8.07;100.00
48041;BME280;33815;48.386;11.738;2023-04-30T05:20:49;96796.44;;;8.21;100.00
48041;BME280;33815;48.386;11.738;2023-04-30T05:23:14;96781.00;;;8.20;100.00
48041;BME280;33815;48.386;11.738;2023-04-30T05:25:40;96790.91;;;8.36;100.00
48041;BME280;33815;48.386;11.738;2023-04-30T05:28:05;96800.44;;;8.56;100.00
48041;BME280;33815;48.386;11.738;2023-04-30T05:30:31;96804.00;;;8.65;100.00
48041;BME280;33815;48.386;11.738;2023-04-30T05:32:56;96805.38;;;8.69;100.00
48041;BME280;33815;48.386;11.738;2023-04-30T05:35:22;96803.69;;;8.89;100.00
48041;BME280;33815;48.386;11.738;2023-04-30T05:37:47;96803.28;;;9.14;100.00
48041;BME280;33815;48.386;11.738;2023-04-30T05:40:13;96809.16;;;9.25;100.00
48041;BME280;33815;48.386;11.738;2023-04-30T05:42:39;96801.78;;;9.31;100.00
48041;BME280;33815;48.386;11.738;2023-04-30T05:45:05;96810.25;;;9.42;100.00
48041;BME280;33815;48.386;11.738;2023-04-30T05:47:31;96788.78;;;9.40;100.00
48041;BME280;33815;48.386;11.738;2023-04-30T05:49:56;96792.47;;;9.48;100.00
48041;BME280;33815;48.386;11.738;2023-04-30T05:52:22;96803.28;;;9.72;100.00
48041;BME280;33815;48.386;11.738;2023-04-30T05:54:47;96803.41;;;9.81;100.00
48041;BME280;33815;48.386;11.738;2023-04-30T05:57:12;96811.00;;;10.11;100.00
48041;BME280;33815;48.386;11.738;2023-04-30T05:59:38;96807.84;;;10.08;100.00
48041;BME280;33815;48.386;11.738;2023-04-30T06:02:03;96798.91;;;10.20;100.00
48041;BME280;33815;48.386;11.738;2023-04-30T06:04:28;96786.03;;;10.19;100.00
48041;BME280;33815;48.386;11.738;2023-04-30T06:06:53;96784.75;;;10.42;100.00
48041;BME280;33815;48.386;11.738;2023-04-30T06:09:19;96792.56;;;10.42;100.00
48041;BME280;33815;48.386;11.738;2023-04-30T06:11:44;96808.97;;;10.53;100.00
48041;BME280;33815;48.386;11.738;2023-04-30T06:14:14;96800.13;;;10.63;100.00
48041;BME280;33815;48.386;11.738;2023-04-30T06:16:39;96804.59;;;10.71;100.00
48041;BME280;33815;48.386;11.738;2023-04-30T06:19:05;96787.97;;;10.82;100.00
48041;BME280;33815;48.386;11.738;2023-04-30T06:21:30;96809.69;;;11.19;100.00
48041;BME280;33815;48.386;11.738;2023-04-30T06:23:55;96808.19;;;11.34;99.58
48041;BME280;33815;48.386;11.738;2023-04-30T06:26:21;96799.78;;;11.22;100.00
48041;BME280;33815;48.386;11.738;2023-04-30T06:28:46;96806.53;;;11.33;100.00
48041;BME280;33815;48.386;11.738;2023-04-30T06:31:11;96803.84;;;11.43;100.00
48041;BME280;33815;48.386;11.738;2023-04-30T06:33:37;96805.19;;;11.47;98.35
48041;BME280;33815;48.386;11.738;2023-04-30T06:36:02;96785.06;;;11.57;94.11
48041;BME280;33815;48.386;11.738;2023-04-30T06:38:28;96789.91;;;11.52;97.23
48041;BME280;33815;48.386;11.738;2023-04-30T06:40:53;96810.56;;;11.63;92.60
48041;BME280;33815;48.386;11.738;2023-04-30T06:43:18;96803.88;;;11.87;91.03
48041;BME280;33815;48.386;11.738;2023-04-30T06:45:43;96796.03;;;12.05;91.68
48041;BME280;33815;48.386;11.738;2023-04-30T06:48:09;96798.34;;;11.90;91.50
48041;BME280;33815;48.386;11.738;2023-04-30T06:50:34;96813.88;;;11.92;89.60
48041;BME280;33815;48.386;11.738;2023-04-30T06:53:07;96810.88;;;12.05;88.90
48041;BME280;33815;48.386;11.738;2023-04-30T06:55:33;96793.06;;;12.00;90.35
48041;BME280;33815;48.386;11.738;2023-04-30T06:57:58;96797.25;;;12.19;87.71
48041;BME280;33815;48.386;11.738;2023-04-30T07:00:23;96793.22;;;12.25;88.73
48041;BME280;33815;48.386;11.738;2023-04-30T07:02:48;96797.03;;;12.39;87.65
48041;BME280;33815;48.386;11.738;2023-04-30T07:05:15;96790.25;;;12.54;89.38
48041;BME280;33815;48.386;11.738;2023-04-30T07:07:41;96776.97;;;12.47;86.96
48041;BME280;33815;48.386;11.738;2023-04-30T07:10:07;96801.53;;;12.63;85.39
48041;BME280;33815;48.386;11.738;2023-04-30T07:12:32;96805.09;;;12.54;82.27
48041;BME280;33815;48.386;11.738;2023-04-30T07:14:57;96795.66;;;12.26;84.98
48041;BME280;33815;48.386;11.738;2023-04-30T07:17:23;96806.00;;;12.10;87.23
48041;BME280;33815;48.386;11.738;2023-04-30T07:19:48;96795.41;;;12.11;85.86
48041;BME280;33815;48.386;11.738;2023-04-30T07:22:14;96795.88;;;12.33;86.05
48041;BME280;33815;48.386;11.738;2023-04-30T07:24:39;96792.56;;;12.31;87.40
48041;BME280;33815;48.386;11.738;2023-04-30T07:27:04;96809.88;;;12.58;82.99
48041;BME280;33815;48.386;11.738;2023-04-30T07:29:31;96792.81;;;12.46;83.90
48041;BME280;33815;48.386;11.738;2023-04-30T07:31:56;96815.22;;;12.48;84.55
48041;BME280;33815;48.386;11.738;2023-04-30T07:34:22;96805.81;;;12.64;84.40
48041;BME280;33815;48.386;11.738;2023-04-30T07:36:48;96813.44;;;12.57;83.79
48041;BME280;33815;48.386;11.738;2023-04-30T07:39:14;96794.81;;;12.60;82.62
48041;BME280;33815;48.386;11.738;2023-04-30T07:41:39;96805.59;;;12.57;82.50
48041;BME280;33815;48.386;11.738;2023-04-30T07:44:05;96806.00;;;12.79;82.98
48041;BME280;33815;48.386;11.738;2023-04-30T07:46:30;96793.59;;;12.81;84.20
48041;BME280;33815;48.386;11.738;2023-04-30T07:48:55;96799.34;;;12.93;83.54
48041;BME280;33815;48.386;11.738;2023-04-30T07:51:21;96798.69;;;12.91;83.81
48041;BME280;33815;48.386;11.738;2023-04-30T07:53:46;96791.25;;;13.29;81.57
48041;BME280;33815;48.386;11.738;2023-04-30T07:56:11;96777.84;;;13.73;77.88
48041;BME280;33815;48.386;11.738;2023-04-30T07:58:36;96793.69;;;14.04;77.79
48041;BME280;33815;48.386;11.738;2023-04-30T08:01:02;96781.06;;;15.50;70.34
48041;BME280;33815;48.386;11.738;2023-04-30T08:03:27;96785.59;;;16.84;66.85
48041;BME280;33815;48.386;11.738;2023-04-30T08:05:53;96775.47;;;17.18;63.02
48041;BME280;33815;48.386;11.738;2023-04-30T08:08:18;96787.72;;;17.25;59.10
48041;BME280;33815;48.386;11.738;2023-04-30T08:10:43;96772.78;;;17.83;58.76
48041;BME280;33815;48.386;11.738;2023-04-30T08:13:09;96778.19;;;18.24;56.29
48041;BME280;33815;48.386;11.738;2023-04-30T08:15:34;96775.88;;;18.49;54.18
48041;BME280;33815;48.386;11.738;2023-04-30T08:18:01;96778.94;;;18.88;52.62
48041;BME280;33815;48.386;11.738;2023-04-30T08:20:26;96782.81;;;18.99;52.90
48041;BME280;33815;48.386;11.738;2023-04-30T08:22:52;96766.19;;;18.63;51.53
48041;BME280;33815;48.386;11.738;2023-04-30T08:25:17;96768.84;;;17.93;53.76
48041;BME280;33815;48.386;11.738;2023-04-30T08:27:43;96758.88;;;18.17;52.41
48041;BME280;33815;48.386;11.738;2023-04-30T08:30:08;96773.53;;;18.68;54.31
48041;BME280;33815;48.386;11.738;2023-04-30T08:32:34;96764.75;;;17.19;54.14
48041;BME280;33815;48.386;11.738;2023-04-30T08:35:01;96774.84;;;16.04;59.59
48041;BME280;33815;48.386;11.738;2023-04-30T08:37:26;96772.75;;;15.85;61.68
48041;BME280;33815;48.386;11.738;2023-04-30T08:39:51;96778.50;;;16.03;63.77
48041;BME280;33815;48.386;11.738;2023-04-30T08:42:18;96784.63;;;16.70;65.25
48041;BME280;33815;48.386;11.738;2023-04-30T08:44:45;96790.78;;;17.07;63.68
48041;BME280;33815;48.386;11.738;2023-04-30T08:47:11;96760.97;;;17.07;58.59
48041;BME280;33815;48.386;11.738;2023-04-30T08:49:39;96777.63;;;16.92;61.26
48041;BME280;33815;48.386;11.738;2023-04-30T08:52:04;96772.34;;;17.29;59.89
48041;BME280;33815;48.386;11.738;2023-04-30T08:54:30;96786.75;;;16.45;60.59
48041;BME280;33815;48.386;11.738;2023-04-30T08:56:56;96778.72;;;15.55;61.00
48041;BME280;33815;48.386;11.738;2023-04-30T08:59:22;96794.28;;;15.11;63.55
48041;BME280;33815;48.386;11.738;2023-04-30T09:01:47;96800.66;;;14.85;63.55
48041;BME280;33815;48.386;11.738;2023-04-30T09:04:12;96802.22;;;15.02;68.55
48041;BME280;33815;48.386;11.738;2023-04-30T09:06:38;96815.19;;;15.27;68.91
48041;BME280;33815;48.386;11.738;2023-04-30T09:09:11;96801.31;;;15.65;65.38
48041;BME280;33815;48.386;11.738;2023-04-30T09:11:37;96805.13;;;15.39;65.58
48041;BME280;33815;48.386;11.738;2023-04-30T09:14:02;96794.84;;;14.98;66.61
48041;BME280;33815;48.386;11.738;2023-04-30T09:16:30;96794.03;;;14.97;67.20
48041;BME280;33815;48.386;11.738;2023-04-30T09:19:09;96792.06;;;15.69;66.94
48041;BME280;33815;48.386;11.738;2023-04-30T09:21:35;96798.38;;;16.36;69.18
48041;BME280;33815;48.386;11.738;2023-04-30T09:24:03;96768.56;;;16.95;63.18
48041;BME280;33815;48.386;11.738;2023-04-30T09:26:37;96786.09;;;17.74;64.68
48041;BME280;33815;48.386;11.738;2023-04-30T09:29:04;96779.50;;;18.07;59.08
48041;BME280;33815;48.386;11.738;2023-04-30T09:31:34;96775.63;;;18.38;57.70
48041;BME280;33815;48.386;11.738;2023-04-30T09:34:03;96775.31;;;17.91;55.20
48041;BME280;33815;48.386;11.738;2023-04-30T09:36:28;96766.56;;;17.62;53.96
48041;BME280;33815;48.386;11.738;2023-04-30T09:38:54;96780.34;;;17.21;57.65
48041;BME280;33815;48.386;11.738;2023-04-30T09:41:29;96768.38;;;17.18;57.63
48041;BME280;33815;48.386;11.738;2023-04-30T09:43:55;96780.22;;;18.22;59.34
48041;BME280;33815;48.386;11.738;2023-04-30T09:46:29;96754.16;;;18.47;53.02
48041;BME280;33815;48.386;11.738;2023-04-30T09:48:56;96762.22;;;17.76;52.77
48041;BME280;33815;48.386;11.738;2023-04-30T09:51:22;96769.44;;;17.67;55.08
48041;BME280;33815;48.386;11.738;2023-04-30T09:53:47;96775.34;;;18.26;54.66
48041;BME280;33815;48.386;11.738;2023-04-30T09:56:19;96755.72;;;17.78;52.59
48041;BME280;33815;48.386;11.738;2023-04-30T09:58:49;96762.16;;;17.47;54.59
48041;BME280;33815;48.386;11.738;2023-04-30T10:01:16;96769.63;;;17.01;53.67
48041;BME280;33815;48.386;11.738;2023-04-30T10:03:42;96776.00;;;16.91;57.10
48041;BME280;33815;48.386;11.738;2023-04-30T10:06:11;96781.97;;;16.85;57.08
48041;BME280;33815;48.386;11.738;2023-04-30T10:08:42;96776.97;;;16.39;57.03
48041;BME280;33815;48.386;11.738;2023-04-30T10:11:09;96780.22;;;16.41;60.26
48041;BME280;33815;48.386;11.738;2023-04-30T10:14:00;96760.34;;;16.08;56.31
48041;BME280;33815;48.386;11.738;2023-04-30T10:19:12;96772.78;;;15.76;57.37
48041;BME280;33815;48.386;11.738;2023-04-30T10:21:39;96784.66;;;16.10;58.21
48041;BME280;33815;48.386;11.738;2023-04-30T10:24:05;96760.53;;;16.07;55.16
48041;BME280;33815;48.386;11.738;2023-04-30T10:26:31;96758.81;;;16.14;55.34
48041;BME280;33815;48.386;11.738;2023-04-30T10:28:58;96756.72;;;16.09;55.73
48041;BME280;33815;48.386;11.738;2023-04-30T10:31:25;96738.34;;;16.24;55.85
48041;BME280;33815;48.386;11.738;2023-04-30T10:34:05;96755.91;;;16.54;57.57
48041;BME280;33815;48.386;11.738;2023-04-30T10:36:42;96743.19;;;16.57;54.10
48041;BME280;33815;48.386;11.738;2023-04-30T10:39:10;96739.06;;;16.33;55.60
48041;BME280;33815;48.386;11.738;2023-04-30T10:41:37;96750.53;;;16.62;55.38
48041;BME280;33815;48.386;11.738;2023-04-30T10:44:02;96743.59;;;16.91;58.37
48041;BME280;33815;48.386;11.738;2023-04-30T10:46:29;96751.16;;;17.16;58.25
48041;BME280;33815;48.386;11.738;2023-04-30T10:48:54;96739.50;;;17.53;54.62
48041;BME280;33815;48.386;11.738;2023-04-30T10:51:20;96730.00;;;17.30;51.76
48041;BME280;33815;48.386;11.738;2023-04-30T10:53:49;96727.13;;;17.04;55.77
48041;BME280;33815;48.386;11.738;2023-04-30T10:56:28;96731.84;;;17.30;54.30
48041;BME280;33815;48.386;11.738;2023-04-30T10:58:58;96727.13;;;17.25;52.43
48041;BME280;33815;48.386;11.738;2023-04-30T11:01:25;96728.56;;;17.28;53.88
48041;BME280;33815;48.386;11.738;2023-04-30T11:04:09;96733.22;;;17.26;52.98
48041;BME280;33815;48.386;11.738;2023-04-30T11:07:08;96733.94;;;16.98;53.93
48041;BME280;33815;48.386;11.738;2023-04-30T11:09:40;96725.88;;;17.00;51.98
48041;BME280;33815;48.386;11.738;2023-04-30T11:14:39;96723.34;;;16.91;54.33
48041;BME280;33815;48.386;11.738;2023-04-30T11:17:05;96729.03;;;17.10;52.13
48041;BME280;33815;48.386;11.738;2023-04-30T11:19:31;96714.47;;;17.14;52.09
48041;BME280;33815;48.386;11.738;2023-04-30T11:27:27;96733.31;;;16.44;56.62
48041;BME280;33815;48.386;11.738;2023-04-30T11:29:53;96720.47;;;16.71;51.87
48041;BME280;33815;48.386;11.738;2023-04-30T11:32:21;96728.00;;;17.33;56.42
48041;BME280;33815;48.386;11.738;2023-04-30T11:34:47;96719.78;;;17.21;55.08
48041;BME280;33815;48.386;11.738;2023-04-30T11:37:22;96707.28;;;17.51;53.87
48041;BME280;33815;48.386;11.738;2023-04-30T11:39:48;96699.09;;;17.68;51.03
48041;BME280;33815;48.386;11.738;2023-04-30T11:42:16;96718.63;;;17.52;51.83
48041;BME280;33815;48.386;11.738;2023-04-30T11:44:42;96703.91;;;17.36;50.95
48041;BME280;33815;48.386;11.738;2023-04-30T11:47:07;96715.66;;;17.33;52.04
48041;BME280;33815;48.386;11.738;2023-04-30T11:49:33;96719.38;;;17.17;53.03
48041;BME280;33815;48.386;11.738;2023-04-30T11:51:58;96715.66;;;17.33;51.95
48041;BME280;33815;48.386;11.738;2023-04-30T11:54:23;96716.84;;;17.30;52.92
48041;BME280;33815;48.386;11.738;2023-04-30T11:56:49;96719.22;;;17.47;53.43
48041;BME280;33815;48.386;11.738;2023-04-30T11:59:15;96720.19;;;17.68;49.60
48041;BME280;33815;48.386;11.738;2023-04-30T12:01:41;96712.78;;;17.85;49.61
48041;BME280;33815;48.386;11.738;2023-04-30T12:04:06;96714.03;;;17.89;50.18
48041;BME280;33815;48.386;11.738;2023-04-30T12:06:33;96698.50;;;18.01;48.52
48041;BME280;33815;48.386;11.738;2023-04-30T12:08:59;96710.69;;;18.02;51.29
48041;BME280;33815;48.386;11.738;2023-04-30T12:11:29;96706.56;;;17.92;51.06
48041;BME280;33815;48.386;11.738;2023-04-30T12:13:59;96701.75;;;18.38;50.47
48041;BME280;33815;48.386;11.738;2023-04-30T12:16:27;96697.41;;;18.23;50.23
48041;BME280;33815;48.386;11.738;2023-04-30T12:18:52;96691.50;;;18.63;49.64
48041;BME280;33815;48.386;11.738;2023-04-30T12:21:18;96707.88;;;18.45;50.42
48041;BME280;33815;48.386;11.738;2023-04-30T12:23:43;96701.78;;;18.51;49.74
48041;BME280;33815;48.386;11.738;2023-04-30T12:26:09;96701.97;;;19.11;50.17
48041;BME280;33815;48.386;11.738;2023-04-30T12:28:34;96692.63;;;19.76;46.76
48041;BME280;33815;48.386;11.738;2023-04-30T12:31:00;96683.19;;;20.20;49.28
48041;BME280;33815;48.386;11.738;2023-04-30T12:33:30;96667.69;;;20.24;43.28
48041;BME280;33815;48.386;11.738;2023-04-30T12:35:56;96651.09;;;20.87;45.50
48041;BME280;33815;48.386;11.738;2023-04-30T12:38:24;96644.72;;;21.01;43.05
48041;BME280;33815;48.386;11.738;2023-04-30T12:40:50;96652.84;;;20.75;42.91
48041;BME280;33815;48.386;11.738;2023-04-30T12:43:16;96661.66;;;20.94;43.31
48041;BME280;33815;48.386;11.738;2023-04-30T12:48:10;96673.03;;;21.01;46.62
48041;BME280;33815;48.386;11.738;2023-04-30T12:50:36;96639.19;;;21.28;43.82
48041;BME280;33815;48.386;11.738;2023-04-30T12:53:04;96654.88;;;21.80;42.50
48041;BME280;33815;48.386;11.738;2023-04-30T12:55:29;96633.28;;;22.14;42.74
48041;BME280;33815;48.386;11.738;2023-04-30T12:58:21;96650.78;;;21.59;40.82
48041;BME280;33815;48.386;11.738;2023-04-30T13:00:48;96648.31;;;22.01;41.91
48041;BME280;33815;48.386;11.738;2023-04-30T13:03:18;96639.16;;;21.97;41.42
48041;BME280;33815;48.386;11.738;2023-04-30T13:05:49;96629.88;;;21.69;40.63
48041;BME280;33815;48.386;11.738;2023-04-30T13:08:14;96630.47;;;21.90;39.65
48041;BME280;33815;48.386;11.738;2023-04-30T13:10:40;96621.28;;;21.23;41.54
48041;BME280;33815;48.386;11.738;2023-04-30T13:13:05;96627.81;;;20.70;42.99